Hiles, Wisconsin
Current Conditions -  °F | °C
As of 10:35 PM on Wednesday 26 Nov 2014 (Local Time) from KEGV Reporting Station
Light Snow Light Snow  
Wind Chill:   Ceiling: 3200
Heat Index: 17°   Visibility: 10mi
Dew Point: 11°   Wind: 9mph
Humidity: 79%   Direction: 350°N
Pressure: 30.16"   Gusts: NA
Location:  45.724°N, 88.8585°W
Report Text: KEGV 270435Z AUTO 35008KT 10SM -SN SCT015 BKN032 M08/M11 A3016 RMK AO2 T10841115
Loading
Personal Weather Stations






























Interactive Weather Map New forecast layout! Learn more

10-Day Weather Forecast

Advertisements
Track Severe Weather on mobile